Time;durP1;ratioP1;P1;durP2;ratioP2;P2;SDS_P1;SDS_P2;PMS_P1;PMS_P2;Temp;Humidity;BMP_temperature;BMP_pressure;BME280_temperature;BME280_humidity;BME280_pressure;Samples;Min_cycle;Max_cycle;Signal;HPM_P1;HPM_P2
2022/06/19 00:02:15;;;;;;;3.85;2.25;;;;;;;14.01;100.00;100351.79;1659837;84;21724;-57
2022/06/19 00:04:44;;;;;;;5.33;2.23;;;;;;;14.03;100.00;100352.91;1661228;84;21281;-57
2022/06/19 00:07:11;;;;;;;4.33;2.70;;;;;;;13.99;100.00;100349.09;1635772;86;22197;-55
2022/06/19 00:09:40;;;;;;;6.23;3.13;;;;;;;14.02;100.00;100353.93;1695346;83;20890;-57
2022/06/19 00:12:09;;;;;;;4.87;2.93;;;;;;;13.92;100.00;100349.59;1694923;84;21718;-57
2022/06/19 00:14:36;;;;;;;4.97;3.10;;;;;;;13.92;100.00;100349.59;1685186;83;21374;-56
2022/06/19 00:17:06;;;;;;;3.13;2.20;;;;;;;13.89;100.00;100346.86;1694929;84;21601;-56
2022/06/19 00:19:33;;;;;;;3.63;2.30;;;;;;;13.88;100.00;100346.06;1693444;83;21049;-55
2022/06/19 00:22:01;;;;;;;3.90;2.67;;;;;;;13.97;100.00;100351.09;1691990;83;21953;-55
2022/06/19 00:24:29;;;;;;;4.13;2.87;;;;;;;14.03;100.00;100347.16;1686209;84;21777;-56
2022/06/19 00:26:57;;;;;;;5.20;2.97;;;;;;;14.07;100.00;100354.92;1632379;87;22477;-58
2022/06/19 00:29:26;;;;;;;4.70;2.83;;;;;;;14.05;100.00;100354.33;1660966;84;22268;-57
2022/06/19 00:31:54;;;;;;;3.97;2.57;;;;;;;14.04;100.00;100360.56;1662296;85;21047;-56
2022/06/19 00:34:21;;;;;;;6.40;3.00;;;;;;;14.06;100.00;100363.00;1660696;84;21203;-57
2022/06/19 00:36:50;;;;;;;4.27;3.10;;;;;;;14.23;100.00;100371.23;1623109;86;21785;-58
2022/06/19 00:39:18;;;;;;;4.30;2.70;;;;;;;14.23;100.00;100371.23;1693681;82;21064;-56
2022/06/19 00:41:45;;;;;;;4.30;2.87;;;;;;;14.17;100.00;100374.18;1694624;84;21851;-56
2022/06/19 00:44:13;;;;;;;3.37;2.40;;;;;;;14.19;100.00;100372.14;1696041;82;21735;-56
2022/06/19 00:46:54;;;;;;;5.63;3.17;;;;;;;14.19;100.00;100372.14;1684275;83;21915;-55
2022/06/19 00:49:39;;;;;;;4.17;2.63;;;;;;;14.24;100.00;100376.26;1695618;82;21673;-56
2022/06/19 00:52:22;;;;;;;5.30;3.00;;;;;;;14.29;100.00;100378.30;1693400;83;21483;-62
2022/06/19 00:55:02;;;;;;;7.47;2.80;;;;;;;14.26;100.00;100373.45;1698796;83;21745;-56
2022/06/19 00:57:32;;;;;;;4.70;3.10;;;;;;;14.26;100.00;100373.45;1695907;83;20982;-55
2022/06/19 01:00:08;;;;;;;4.97;3.00;;;;;;;14.24;100.00;100378.88;1695397;84;21870;-56
2022/06/19 01:02:37;;;;;;;6.87;3.07;;;;;;;14.26;100.00;100376.08;1687044;83;21803;-58
2022/06/19 01:05:06;;;;;;;7.67;3.10;;;;;;;14.26;100.00;100376.88;1641223;85;21817;-56
2022/06/19 01:07:35;;;;;;;4.53;2.63;;;;;;;14.21;100.00;100380.63;1694116;84;21612;-60
2022/06/19 01:10:02;;;;;;;8.50;3.50;;;;;;;14.33;100.00;100382.13;1694653;83;21560;-62
2022/06/19 01:12:31;;;;;;;5.60;2.77;;;;;;;14.33;100.00;100382.13;1693901;83;22319;-56
2022/06/19 01:15:04;;;;;;;5.47;3.60;;;;;;;14.41;100.00;100383.72;1692828;84;21011;-57
2022/06/19 01:17:33;;;;;;;4.47;2.77;;;;;;;14.41;100.00;100383.72;1687533;83;21059;-56
2022/06/19 01:20:04;;;;;;;4.80;2.57;;;;;;;14.29;100.00;100381.72;1683561;83;21047;-57
2022/06/19 01:23:12;;;;;;;4.77;3.43;;;;;;;14.23;100.00;100374.66;1687125;83;21719;-56
2022/06/19 01:25:41;;;;;;;5.13;2.90;;;;;;;14.23;100.00;100374.66;1691536;83;21120;-63
2022/06/19 01:28:49;;;;;;;4.13;2.60;;;;;;;14.18;100.00;100372.36;1693311;83;21149;-57
2022/06/19 01:31:17;;;;;;;5.53;2.90;;;;;;;14.23;100.00;100376.48;1693702;83;21798;-59
2022/06/19 01:33:59;;;;;;;4.78;3.20;;;;;;;14.25;100.00;100376.59;1694415;83;21813;-57
2022/06/19 01:36:29;;;;;;;8.47;3.13;;;;;;;14.24;100.00;100376.77;1693696;83;21054;-56
2022/06/19 01:38:57;;;;;;;5.27;2.97;;;;;;;14.22;100.00;100383.54;1715921;81;21635;-58
2022/06/19 01:41:31;;;;;;;3.87;2.60;;;;;;;14.09;100.00;100388.78;1683557;83;21643;-58
2022/06/19 01:43:59;;;;;;;6.07;3.27;;;;;;;14.19;100.00;100395.73;1694284;83;22135;-58
2022/06/19 01:46:27;;;;;;;5.73;3.63;;;;;;;14.21;100.00;100395.05;1671494;84;21764;-58
2022/06/19 01:48:54;;;;;;;5.07;3.63;;;;;;;14.11;100.00;100397.27;1666558;85;21772;-62
2022/06/19 01:51:21;;;;;;;4.50;3.57;;;;;;;14.05;100.00;100395.44;1695276;83;22657;-56
2022/06/19 01:53:52;;;;;;;5.70;3.10;;;;;;;14.00;100.00;100400.48;1693570;83;21699;-59
2022/06/19 01:56:20;;;;;;;4.70;3.58;;;;;;;14.04;100.00;100406.94;1693666;83;21857;-56
2022/06/19 01:58:49;;;;;;;6.40;4.40;;;;;;;14.16;100.00;100364.68;1693909;83;20929;-60
2022/06/19 02:01:17;;;;;;;5.92;3.40;;;;;;;14.38;100.00;100398.55;1693556;83;21088;-59
2022/06/19 02:03:49;;;;;;;5.17;3.40;;;;;;;14.68;100.00;100404.97;1694108;83;21226;-58
2022/06/19 02:06:27;;;;;;;6.10;3.55;;;;;;;15.19;100.00;100408.12;1700378;84;21434;-56
2022/06/19 02:08:54;;;;;;;5.17;3.27;;;;;;;15.72;100.00;100404.39;1700762;83;21350;-57
2022/06/19 02:11:22;;;;;;;6.33;3.27;;;;;;;16.40;100.00;100403.63;1701547;83;20922;-62
2022/06/19 02:13:50;;;;;;;4.97;3.13;;;;;;;17.01;100.00;100400.16;1690226;83;21078;-57
2022/06/19 02:16:20;;;;;;;4.87;3.20;;;;;;;17.52;100.00;100404.13;1700589;84;21144;-60
2022/06/19 02:18:50;;;;;;;8.20;3.30;;;;;;;18.01;100.00;100402.19;1690882;84;21099;-57
2022/06/19 02:21:22;;;;;;;4.20;3.00;;;;;;;18.59;100.00;100405.31;1689085;83;21072;-64
2022/06/19 02:23:49;;;;;;;3.43;2.57;;;;;;;19.18;100.00;100402.56;1700581;84;21322;-56
2022/06/19 02:26:16;;;;;;;4.37;2.53;;;;;;;19.69;100.00;100392.37;1698150;82;21523;-58
2022/06/19 02:28:45;;;;;;;3.80;2.07;;;;;;;20.20;100.00;100389.71;1675271;83;21542;-56
2022/06/19 02:31:12;;;;;;;4.50;2.17;;;;;;;20.70;100.00;100389.33;1689835;83;22177;-56
2022/06/19 02:33:44;;;;;;;2.77;1.83;;;;;;;21.22;100.00;100383.02;1700224;83;21080;-57
2022/06/19 02:36:35;;;;;;;4.23;2.60;;;;;;;21.69;100.00;100382.92;1700090;83;21461;-56
2022/06/19 02:39:36;;;;;;;3.67;2.00;;;;;;;22.15;100.00;100381.95;1697423;83;20939;-61
2022/06/19 02:42:14;;;;;;;2.50;1.90;;;;;;;22.75;100.00;100386.75;1693870;83;21218;-58
2022/06/19 02:44:41;;;;;;;4.53;2.13;;;;;;;23.40;100.00;100383.73;1700616;82;21131;-60
2022/06/19 02:47:09;;;;;;;15.20;13.70;;;;;;;24.04;100.00;100381.34;1700241;83;21038;-58
2022/06/19 02:49:37;;;;;;;56.57;49.00;;;;;;;24.58;100.00;100383.86;1667113;84;21014;-57
2022/06/19 02:52:05;;;;;;;11.70;8.73;;;;;;;24.73;100.00;100395.00;1700668;84;20962;-58
2022/06/19 02:54:32;;;;;;;5.03;3.70;;;;;;;25.14;100.00;100392.94;1693057;84;22376;-58
2022/06/19 02:56:59;;;;;;;5.20;3.03;;;;;;;25.69;100.00;100397.62;1700141;83;21081;-61
2022/06/19 02:59:26;;;;;;;4.30;2.20;;;;;;;26.23;99.06;100397.13;1689654;84;21084;-57
2022/06/19 03:01:53;;;;;;;3.55;2.37;;;;;;;26.71;90.68;100403.00;1691684;83;21073;-58
2022/06/19 03:04:29;;;;;;;3.12;2.58;;;;;;;27.24;83.24;100405.00;1686261;83;21137;-60
2022/06/19 03:06:56;;;;;;;3.98;2.37;;;;;;;27.64;75.83;100404.88;1708123;83;21881;-57
2022/06/19 03:09:24;;;;;;;5.22;2.85;;;;;;;28.36;67.37;100405.76;1706342;83;21085;-57
2022/06/19 03:11:54;;;;;;;8.55;4.20;;;;;;;28.36;67.37;100405.76;1708618;83;21002;-57
2022/06/19 03:14:21;;;;;;;5.87;5.28;;;;;;;28.73;64.50;100405.87;1695397;83;21093;-57
2022/06/19 03:16:48;;;;;;;23.92;21.95;;;;;;;29.22;62.04;100406.97;1707559;83;21117;-60
2022/06/19 03:19:15;;;;;;;11.88;10.75;;;;;;;29.67;59.18;100397.03;1666084;85;21350;-57
2022/06/19 03:21:45;;;;;;;11.38;10.48;;;;;;;30.08;55.23;100401.88;1700919;83;21511;-58
2022/06/19 03:24:12;;;;;;;13.75;12.63;;;;;;;30.20;52.73;100401.58;1668926;85;21019;-57
2022/06/19 03:26:39;;;;;;;8.55;7.78;;;;;;;30.33;51.66;100407.94;1708505;83;21423;-58
2022/06/19 03:29:07;;;;;;;6.33;5.72;;;;;;;30.49;50.46;100406.95;1707466;83;21084;-58
2022/06/19 03:31:35;;;;;;;5.03;4.28;;;;;;;30.63;49.67;100410.31;1709535;83;21581;-57
2022/06/19 03:34:02;;;;;;;4.62;3.60;;;;;;;30.81;47.42;100405.78;1701131;83;20987;-63
2022/06/19 03:36:29;;;;;;;4.90;4.37;;;;;;;30.64;47.69;100409.19;1708006;83;21094;-60
2022/06/19 03:38:56;;;;;;;6.03;4.78;;;;;;;30.72;48.01;100409.78;1708024;83;21003;-58
2022/06/19 03:41:24;;;;;;;5.33;4.45;;;;;;;30.98;47.36;100414.41;1699523;83;21525;-56
2022/06/19 03:43:51;;;;;;;7.12;3.92;;;;;;;31.37;46.22;100410.02;1707367;83;21311;-57
2022/06/19 03:46:19;;;;;;;4.03;3.47;;;;;;;31.82;45.60;100413.63;1707316;83;21480;-57
2022/06/19 03:48:48;;;;;;;3.92;2.50;;;;;;;32.08;44.16;100414.35;1701961;83;21024;-57
2022/06/19 03:51:17;;;;;;;4.45;3.10;;;;;;;32.33;43.72;100410.52;1706517;83;21361;-57
2022/06/19 03:53:45;;;;;;;4.00;3.17;;;;;;;32.53;42.98;100409.01;1708293;83;21247;-57
2022/06/19 03:56:23;;;;;;;6.22;5.08;;;;;;;32.72;42.33;100411.27;1695686;83;21170;-62
2022/06/19 03:58:51;;;;;;;3.72;2.33;;;;;;;33.03;42.05;100401.45;1704414;83;21093;-55
2022/06/19 04:01:27;;;;;;;6.78;2.42;;;;;;;33.38;40.95;100397.89;1707079;83;21366;-54
2022/06/19 04:03:56;;;;;;;3.55;1.82;;;;;;;33.54;40.44;100398.86;1707296;83;21149;-58
2022/06/19 04:06:27;;;;;;;3.83;2.10;;;;;;;33.79;39.92;100402.95;1690667;83;21112;-62
2022/06/19 04:08:56;;;;;;;3.15;2.00;;;;;;;33.98;39.38;100401.05;1694203;83;21378;-56
2022/06/19 04:11:27;;;;;;;3.37;1.92;;;;;;;34.11;38.92;100405.38;1634813;86;21595;-55
2022/06/19 04:13:54;;;;;;;3.08;2.35;;;;;;;34.16;38.72;100401.66;1661568;84;20991;-56
2022/06/19 04:16:25;;;;;;;5.45;2.30;;;;;;;34.30;38.66;100402.11;1661632;86;22222;-58
2022/06/19 04:18:53;;;;;;;4.15;2.77;;;;;;;34.60;38.24;100404.80;1659602;85;21109;-55
2022/06/19 04:21:26;;;;;;;3.25;2.65;;;;;;;34.92;37.34;100403.58;1651060;84;21166;-55
2022/06/19 04:23:57;;;;;;;3.10;2.42;;;;;;;35.25;36.97;100402.02;1661090;84;21027;-55
2022/06/19 04:26:28;;;;;;;4.72;3.20;;;;;;;35.62;36.37;100412.70;1644288;86;21005;-63
2022/06/19 04:28:56;;;;;;;5.03;3.75;;;;;;;36.00;35.58;100410.77;1655085;86;21508;-55
2022/06/19 04:31:23;;;;;;;7.25;4.62;;;;;;;36.44;34.61;100413.31;1647131;86;21011;-61
2022/06/19 04:33:51;;;;;;;6.12;4.42;;;;;;;36.75;34.43;100418.48;1652478;86;21999;-56
2022/06/19 04:36:20;;;;;;;4.40;4.00;;;;;;;36.99;33.66;100416.08;1650235;86;21142;-62
2022/06/19 04:38:49;;;;;;;5.25;3.62;;;;;;;37.21;33.38;100417.29;1654589;86;21664;-57
2022/06/19 04:41:26;;;;;;;9.18;4.60;;;;;;;37.55;32.86;100409.39;1649755;86;20976;-60
2022/06/19 04:43:53;;;;;;;7.15;3.65;;;;;;;37.88;32.34;100405.48;1655237;86;21451;-62
2022/06/19 04:46:20;;;;;;;4.08;3.27;;;;;;;38.22;31.85;100405.02;1646180;86;21636;-56
2022/06/19 04:48:48;;;;;;;5.55;4.08;;;;;;;38.42;31.10;100410.41;1657260;86;21160;-56
2022/06/19 04:51:15;;;;;;;6.37;4.78;;;;;;;38.52;31.08;100404.30;1644742;85;21031;-55
2022/06/19 04:53:43;;;;;;;6.65;4.33;;;;;;;38.69;31.07;100411.16;1656733;86;21083;-64
2022/06/19 04:56:11;;;;;;;5.58;4.08;;;;;;;38.92;30.48;100409.13;1646528;85;21744;-56
2022/06/19 04:58:39;;;;;;;4.87;3.77;;;;;;;39.14;29.90;100406.06;1657680;86;21219;-57
2022/06/19 05:01:18;;;;;;;6.08;3.33;;;;;;;39.33;29.70;100405.70;1657528;86;20999;-56
2022/06/19 05:03:46;;;;;;;6.60;3.37;;;;;;;39.35;29.36;100400.63;1651975;86;21114;-63
2022/06/19 05:06:13;;;;;;;5.42;4.35;;;;;;;39.21;28.60;100406.72;1654994;84;20980;-55
2022/06/19 05:08:42;;;;;;;4.47;3.52;;;;;;;38.74;28.84;100402.64;1662838;86;21090;-56
2022/06/19 05:11:10;;;;;;;4.58;3.87;;;;;;;38.52;29.60;100403.52;1663216;85;21144;-57
2022/06/19 05:13:37;;;;;;;4.85;4.35;;;;;;;38.69;29.49;100407.06;1664067;84;21083;-59
2022/06/19 05:16:09;;;;;;;9.60;4.42;;;;;;;38.98;28.65;100403.33;1664504;84;21108;-57
2022/06/19 05:18:37;;;;;;;5.20;4.40;;;;;;;39.21;28.51;100406.72;1664119;86;21555;-57
2022/06/19 05:21:09;;;;;;;5.30;3.90;;;;;;;39.05;28.46;100400.10;1635499;86;21166;-64
2022/06/19 05:23:34;;;;;;;6.28;4.47;;;;;;;38.85;28.48;100403.59;1663123;86;22312;-58
2022/06/19 05:26:09;;;;;;;8.53;4.37;;;;;;;38.78;28.86;100403.47;1663990;84;21444;-58
2022/06/19 05:28:36;;;;;;;5.05;4.05;;;;;;;38.88;28.71;100405.58;1633169;86;21110;-58
2022/06/19 05:31:04;;;;;;;5.40;4.25;;;;;;;39.08;28.42;100400.73;1632780;86;21030;-62
2022/06/19 05:33:32;;;;;;;6.80;4.15;;;;;;;39.01;28.28;100408.04;1662996;85;21502;-57
2022/06/19 05:35:59;;;;;;;5.30;4.30;;;;;;;38.93;28.60;100406.59;1664870;84;21164;-56
2022/06/19 05:38:27;;;;;;;5.17;4.08;;;;;;;38.83;28.42;100410.55;1653860;85;21094;-56
2022/06/19 05:40:55;;;;;;;4.67;4.10;;;;;;;38.56;28.73;100413.30;1665020;86;21011;-64
2022/06/19 05:43:23;;;;;;;5.85;4.05;;;;;;;38.36;28.84;100403.70;1662967;84;21134;-58
2022/06/19 05:46:02;;;;;;;4.55;3.92;;;;;;;38.22;29.64;100406.97;1655988;84;21136;-56
2022/06/19 05:48:29;;;;;;;;;;;;;;;38.51;28.90;100412.86;1657077;86;21196;-56
2022/06/19 05:51:06;;;;;;;5.42;3.70;;;;;;;38.49;28.71;100406.98;1625360;86;20096;-61
2022/06/19 05:53:38;;;;;;;5.30;3.55;;;;;;;38.57;28.77;100401.86;1628107;86;21499;-57
2022/06/19 05:56:05;;;;;;;4.15;3.10;;;;;;;38.94;28.49;100401.92;1635867;86;21078;-57
2022/06/19 05:58:32;;;;;;;6.20;4.12;;;;;;;39.27;28.09;100400.36;1631397;87;21129;-64
2022/06/19 06:01:02;;;;;;;4.67;3.47;;;;;;;39.61;27.58;100396.98;1664678;84;21041;-63
2022/06/19 06:03:30;;;;;;;4.55;3.50;;;;;;;39.92;27.32;100400.36;1664187;85;21006;-58
2022/06/19 06:06:06;;;;;;;5.28;3.60;;;;;;;40.03;26.86;100403.37;1629408;87;21028;-56
2022/06/19 06:08:37;;;;;;;4.85;3.75;;;;;;;40.27;26.59;100404.73;1673636;83;21072;-60
2022/06/19 06:11:06;;;;;;;7.03;3.52;;;;;;;40.47;26.25;100408.55;1688751;83;21023;-57
2022/06/19 06:13:35;;;;;;;4.62;3.95;;;;;;;40.58;26.04;100406.67;1696476;84;21393;-58
2022/06/19 06:16:03;;;;;;;7.03;3.45;;;;;;;40.34;25.69;100403.38;1691136;83;20967;-56
2022/06/19 06:18:30;;;;;;;4.67;3.40;;;;;;;40.15;26.10;100400.94;1696120;84;20989;-63
2022/06/19 06:21:00;;;;;;;4.50;3.42;;;;;;;40.06;26.22;100397.73;1680501;83;21404;-62
2022/06/19 06:23:28;;;;;;;5.15;3.72;;;;;;;40.02;26.00;100405.91;1660242;86;21104;-56
2022/06/19 06:26:11;;;;;;;4.25;3.27;;;;;;;39.71;26.81;100391.45;1651079;86;21164;-57
2022/06/19 06:28:40;;;;;;;4.22;3.42;;;;;;;39.70;27.06;100394.73;1644171;86;21793;-59
2022/06/19 06:31:07;;;;;;;4.83;3.33;;;;;;;39.57;26.22;100390.13;1652379;85;21751;-58
2022/06/19 06:33:34;;;;;;;5.58;3.20;;;;;;;39.27;26.69;100393.55;1660652;85;21541;-58
2022/06/19 06:36:02;;;;;;;3.27;2.98;;;;;;;39.37;27.06;100392.87;1659937;84;21077;-58
2022/06/19 06:38:30;;;;;;;4.12;3.05;;;;;;;39.70;26.32;100392.00;1657855;86;21602;-56
2022/06/19 06:40:58;;;;;;;4.47;2.55;;;;;;;40.07;25.90;100393.25;1659882;84;21002;-57
2022/06/19 06:43:26;;;;;;;4.30;3.15;;;;;;;40.32;25.67;100391.30;1694800;84;20894;-57
2022/06/19 06:45:53;;;;;;;4.22;2.92;;;;;;;40.19;25.39;100389.45;1696251;84;21060;-58
2022/06/19 06:48:22;;;;;;;6.17;2.77;;;;;;;39.94;25.79;100387.13;1695614;84;21029;-64
2022/06/19 06:50:49;;;;;;;4.00;2.77;;;;;;;39.54;25.82;100382.69;1690090;84;22290;-57
2022/06/19 06:53:17;;;;;;;3.60;2.83;;;;;;;39.59;25.93;100387.01;1694923;83;20997;-56
2022/06/19 06:55:45;;;;;;;4.95;2.80;;;;;;;39.75;25.61;100388.94;1697152;84;20942;-57
2022/06/19 06:58:14;;;;;;;4.37;2.58;;;;;;;39.91;25.69;100393.34;1696639;84;20974;-60
2022/06/19 07:00:42;;;;;;;4.78;3.22;;;;;;;39.97;25.25;100390.44;1691058;83;21479;-56
2022/06/19 07:03:10;;;;;;;4.33;3.23;;;;;;;39.75;25.18;100393.63;1647187;84;21165;-58
2022/06/19 07:05:38;;;;;;;4.15;2.80;;;;;;;39.61;25.19;100399.70;1636099;84;21033;-57
2022/06/19 07:08:06;;;;;;;4.55;2.77;;;;;;;39.66;24.63;100394.67;1661516;84;21083;-62
2022/06/19 07:10:35;;;;;;;5.62;2.75;;;;;;;39.33;24.73;100394.20;1661729;84;21435;-58
2022/06/19 07:13:02;;;;;;;3.92;2.98;;;;;;;39.36;25.06;100389.92;1652199;85;21095;-57
2022/06/19 07:15:30;;;;;;;6.25;2.33;;;;;;;39.56;25.40;100389.93;1661767;84;21355;-56
2022/06/19 07:17:57;;;;;;;3.90;2.60;;;;;;;39.26;25.46;100396.08;1661716;84;21603;-64
2022/06/19 07:20:25;;;;;;;4.42;2.98;;;;;;;38.81;25.50;100393.22;1632507;86;21584;-57
2022/06/19 07:22:53;;;;;;;3.98;2.50;;;;;;;38.32;25.96;100388.64;1662316;84;21150;-56
2022/06/19 07:25:21;;;;;;;4.35;2.55;;;;;;;38.30;26.25;100389.61;1662028;85;21125;-57
2022/06/19 07:27:48;;;;;;;4.58;2.65;;;;;;;38.39;25.88;100383.33;1662538;84;21148;-56
2022/06/19 07:30:20;;;;;;;3.77;2.62;;;;;;;38.22;26.08;100383.83;1651405;85;20967;-58
2022/06/19 07:32:50;;;;;;;3.47;2.17;;;;;;;38.34;25.20;100382.30;1661574;86;21014;-58
2022/06/19 07:35:17;;;;;;;2.75;1.82;;;;;;;38.49;24.46;100377.80;1695792;83;21017;-56
2022/06/19 07:37:45;;;;;;;3.92;2.72;;;;;;;38.51;23.91;100380.17;1684195;83;20990;-61
2022/06/19 07:40:15;;;;;;;3.67;2.33;;;;;;;38.68;24.53;100387.77;1687042;84;21173;-57
2022/06/19 07:42:43;;;;;;;3.60;2.40;;;;;;;38.93;24.63;100380.70;1695230;83;21072;-56
2022/06/19 07:45:11;;;;;;;5.35;2.70;;;;;;;39.07;24.65;100373.84;1694547;82;21041;-56
2022/06/19 07:50:27;;;;;;;3.42;2.55;;;;;;;39.07;24.87;100373.84;1657565;84;21312;-57
2022/06/19 07:52:54;;;;;;;4.20;2.58;;;;;;;39.23;24.17;100371.67;1701644;82;21277;-57
2022/06/19 07:55:25;;;;;;;4.90;3.12;;;;;;;39.52;23.76;100365.93;1689642;82;20941;-56
2022/06/19 07:57:52;;;;;;;4.72;3.12;;;;;;;39.76;22.92;100370.62;1694449;83;20922;-58
2022/06/19 08:00:26;;;;;;;4.30;2.80;;;;;;;39.73;23.34;100374.88;1695139;83;21111;-56
2022/06/19 08:02:53;;;;;;;4.67;3.05;;;;;;;39.91;22.77;100379.11;1685345;82;21003;-58
2022/06/19 08:05:26;;;;;;;4.30;3.15;;;;;;;40.04;22.97;100376.84;1694802;83;21072;-62
2022/06/19 08:07:54;;;;;;;4.15;3.10;;;;;;;40.21;22.68;100376.20;1689544;84;21331;-59
2022/06/19 08:10:24;;;;;;;4.65;3.12;;;;;;;40.06;22.07;100378.04;1695855;84;21068;-57
2022/06/19 08:12:52;;;;;;;5.67;2.92;;;;;;;39.50;22.40;100372.91;1688310;83;21571;-59
2022/06/19 08:15:21;;;;;;;3.90;3.05;;;;;;;39.08;23.57;100368.02;1694682;83;20963;-64
2022/06/19 08:17:50;;;;;;;4.20;2.90;;;;;;;39.21;23.44;100369.09;1687968;83;21770;-57
2022/06/19 08:20:18;;;;;;;4.17;3.12;;;;;;;39.27;23.03;100367.06;1632259;86;21026;-57
2022/06/19 08:22:46;;;;;;;5.53;3.12;;;;;;;39.29;23.35;100372.94;1658664;85;21090;-57
2022/06/19 08:25:15;;;;;;;4.97;3.40;;;;;;;39.43;22.39;100364.66;1630936;87;21572;-59
2022/06/19 08:27:47;;;;;;;4.85;3.80;;;;;;;39.48;22.67;100369.80;1693418;83;20950;-57
2022/06/19 08:30:21;;;;;;;5.25;3.33;;;;;;;39.46;22.54;100372.09;1684740;84;21263;-57
2022/06/19 08:32:48;;;;;;;5.80;3.20;;;;;;;39.38;23.06;100374.76;1691825;84;21551;-56
2022/06/19 08:35:16;;;;;;;5.37;3.52;;;;;;;39.31;23.07;100378.78;1695629;84;21099;-64
2022/06/19 08:37:43;;;;;;;5.00;3.58;;;;;;;39.17;23.28;100371.23;1695236;84;21430;-57
2022/06/19 08:40:37;;;;;;;5.95;4.97;;;;;;;39.09;23.33;100375.03;1690916;83;21582;-59
2022/06/19 08:43:47;;;;;;;5.03;4.53;;;;;;;39.07;22.47;100371.12;1692944;83;22118;-64
2022/06/19 08:46:45;;;;;;;6.67;4.28;;;;;;;38.99;22.70;100365.39;1683976;84;21129;-64
2022/06/19 08:49:42;;;;;;;7.53;4.85;;;;;;;38.93;23.17;100363.56;1685010;83;21540;-59
2022/06/19 08:52:14;;;;;;;5.53;4.25;;;;;;;38.66;22.73;100364.98;1694862;84;21719;-56
2022/06/19 08:55:40;;;;;;;8.18;5.05;;;;;;;37.94;23.85;100351.55;1695103;84;20922;-56
2022/06/19 08:58:28;;;;;;;7.22;5.15;;;;;;;37.62;24.29;100353.72;1695428;84;21176;-55
2022/06/19 09:01:33;;;;;;;7.03;5.12;;;;;;;37.58;24.71;100346.89;1689764;84;22080;-57
2022/06/19 09:07:24;;;;;;;6.95;5.10;;;;;;;38.52;23.67;100340.30;1692066;83;21067;-55
2022/06/19 09:10:24;;;;;;;6.97;5.20;;;;;;;38.77;23.12;100341.17;1689513;84;21473;-55
2022/06/19 09:13:11;;;;;;;5.15;3.75;;;;;;;38.65;23.07;100336.77;1689440;84;21230;-57
2022/06/19 09:16:05;;;;;;;5.28;4.20;;;;;;;38.66;23.92;100338.33;1696880;84;20986;-58
2022/06/19 09:18:52;;;;;;;5.17;4.03;;;;;;;38.58;24.05;100339.41;1660604;84;21441;-57
2022/06/19 09:21:30;;;;;;;5.12;4.15;;;;;;;38.42;24.56;100340.97;1695857;83;20981;-56
2022/06/19 09:24:28;;;;;;;5.33;4.58;;;;;;;38.33;25.05;100339.83;1695426;84;21120;-61
2022/06/19 09:27:00;;;;;;;5.60;4.28;;;;;;;38.26;24.72;100342.45;1682452;83;21209;-57
2022/06/19 09:29:36;;;;;;;6.12;4.80;;;;;;;38.21;24.25;100335.40;1695598;84;21024;-59
2022/06/19 09:32:17;;;;;;;5.10;3.92;;;;;;;38.03;24.32;100334.95;1696258;84;21827;-57
2022/06/19 09:34:59;;;;;;;4.87;3.62;;;;;;;37.88;24.19;100330.66;1690402;83;21041;-58
2022/06/19 09:38:11;;;;;;;5.03;3.52;;;;;;;37.85;24.78;100330.02;1696682;83;21560;-57
2022/06/19 09:40:42;;;;;;;5.58;3.80;;;;;;;38.02;25.41;100323.86;1628104;86;20951;-58
2022/06/19 09:43:14;;;;;;;5.83;4.47;;;;;;;38.22;25.10;100315.77;1642230;86;21071;-58
2022/06/19 09:45:58;;;;;;;4.60;3.87;;;;;;;38.40;24.79;100316.81;1666252;84;20961;-58
2022/06/19 09:48:39;;;;;;;5.40;3.70;;;;;;;38.48;24.58;100319.63;1659388;84;21168;-58
2022/06/19 09:51:25;;;;;;;5.12;3.80;;;;;;;38.36;24.53;100313.26;1651898;86;20992;-59
2022/06/19 09:54:12;;;;;;;6.37;3.60;;;;;;;38.12;24.82;100319.15;1647072;86;22358;-57
2022/06/19 09:57:02;;;;;;;6.12;3.90;;;;;;;38.03;25.39;100318.03;1644172;86;21062;-58
2022/06/19 09:59:52;;;;;;;3.72;2.92;;;;;;;37.90;25.14;100317.48;1650762;86;21535;-58
2022/06/19 10:02:33;;;;;;;3.50;2.95;;;;;;;37.95;25.34;100318.52;1656881;84;21091;-57
2022/06/19 10:05:05;;;;;;;3.80;2.90;;;;;;;38.10;25.30;100312.70;1655888;86;21163;-57
2022/06/19 10:07:44;;;;;;;5.55;3.08;;;;;;;37.84;25.44;100312.68;1665413;85;21340;-65
2022/06/19 10:10:25;;;;;;;3.70;3.00;;;;;;;37.43;25.08;100306.44;1695083;83;21048;-58
2022/06/19 10:12:53;;;;;;;3.83;2.55;;;;;;;36.92;25.99;100302.57;1701333;84;21069;-59
2022/06/19 10:15:32;;;;;;;6.08;2.35;;;;;;;36.70;26.69;100314.17;1701509;84;20933;-66
2022/06/19 10:18:09;;;;;;;3.98;2.50;;;;;;;36.71;26.82;100303.52;1672333;84;21107;-56
2022/06/19 10:20:57;;;;;;;3.55;2.37;;;;;;;36.68;26.54;100312.41;1691202;83;21864;-55
2022/06/19 10:23:54;;;;;;;3.47;2.62;;;;;;;36.35;26.54;100310.14;1700092;83;21479;-63
2022/06/19 10:26:35;;;;;;;4.25;3.15;;;;;;;35.88;27.55;100311.83;1664558;85;21036;-57
2022/06/19 10:29:19;;;;;;;3.27;2.27;;;;;;;35.33;28.34;100310.84;1699932;83;21481;-57
2022/06/19 10:32:24;;;;;;;3.62;2.33;;;;;;;35.14;29.05;100307.46;1674958;83;20982;-57
2022/06/19 10:35:09;;;;;;;3.20;2.20;;;;;;;35.31;29.30;100304.43;1700362;83;21163;-56
2022/06/19 10:38:00;;;;;;;3.60;2.20;;;;;;;35.67;27.99;100307.25;1699959;83;20994;-62
2022/06/19 10:40:48;;;;;;;2.43;2.23;;;;;;;35.71;27.92;100302.69;1691386;84;20998;-56
2022/06/19 10:43:22;;;;;;;4.37;2.20;;;;;;;35.52;27.57;100300.12;1699161;83;21056;-62
2022/06/19 10:45:56;;;;;;;2.98;2.45;;;;;;;35.22;28.43;100303.80;1655353;84;21080;-58
2022/06/19 10:48:54;;;;;;;3.42;2.22;;;;;;;35.11;29.08;100301.37;1665872;85;21291;-59
2022/06/19 10:51:42;;;;;;;3.55;2.80;;;;;;;35.23;29.23;100305.94;1701341;82;21570;-57
2022/06/19 10:54:35;;;;;;;3.35;2.22;;;;;;;35.65;29.11;100306.80;1700398;83;20989;-61
2022/06/19 10:57:25;;;;;;;4.87;2.42;;;;;;;35.85;28.40;100309.81;1700948;83;21048;-61
2022/06/19 10:59:53;;;;;;;3.05;2.27;;;;;;;36.05;28.15;100298.45;1700252;83;21832;-58
2022/06/19 11:05:34;;;;;;;3.42;2.30;;;;;;;36.76;26.89;100289.66;1696444;83;21124;-59
2022/06/19 11:08:02;;;;;;;3.10;2.15;;;;;;;36.93;26.67;100297.34;1687597;83;20995;-58
2022/06/19 11:10:45;;;;;;;3.22;2.42;;;;;;;37.13;26.74;100296.78;1696366;84;21073;-56
2022/06/19 11:13:12;;;;;;;3.50;2.45;;;;;;;37.40;26.52;100299.55;1696277;84;21541;-59
2022/06/19 11:15:48;;;;;;;3.02;2.40;;;;;;;37.50;26.06;100299.73;1696301;84;21468;-56
2022/06/19 11:18:21;;;;;;;3.25;2.40;;;;;;;37.39;26.18;100301.49;1696165;83;21104;-57
2022/06/19 11:21:05;;;;;;;2.90;2.27;;;;;;;37.39;26.45;100300.13;1683964;83;21049;-59
2022/06/19 11:23:35;;;;;;;3.33;2.30;;;;;;;37.24;26.27;100300.47;1686097;84;21492;-60
2022/06/19 11:26:18;;;;;;;3.62;2.47;;;;;;;36.98;26.68;100293.02;1695936;84;20954;-65
2022/06/19 11:28:59;;;;;;;2.45;1.90;;;;;;;36.83;26.85;100289.80;1696081;84;21457;-60
2022/06/19 11:31:32;;;;;;;3.02;2.02;;;;;;;36.88;26.22;100288.14;1696349;84;21014;-59
2022/06/19 11:37:31;;;;;;;2.95;2.10;;;;;;;36.88;26.34;100292.22;1681660;83;21599;-66
2022/06/19 11:40:07;;;;;;;2.95;2.20;;;;;;;37.09;25.70;100293.77;1695150;83;21039;-61
2022/06/19 11:42:48;;;;;;;6.10;2.70;;;;;;;36.76;25.96;100284.23;1686170;83;21272;-63
2022/06/19 11:45:22;;;;;;;2.30;2.10;;;;;;;36.46;25.61;100292.97;1692388;83;21949;-59
2022/06/19 11:48:00;;;;;;;3.87;2.27;;;;;;;36.52;25.79;100282.05;1685155;84;21048;-60
2022/06/19 11:50:50;;;;;;;2.87;2.27;;;;;;;36.68;25.66;100281.95;1689903;82;21177;-60
2022/06/19 11:53:27;;;;;;;7.40;4.10;;;;;;;36.95;25.54;100276.08;1695749;83;21013;-59
2022/06/19 11:56:37;;;;;;;3.58;2.22;;;;;;;37.13;25.58;100272.89;1679844;84;22172;-58
2022/06/19 11:59:09;;;;;;;3.47;2.25;;;;;;;37.01;25.92;100269.20;1695191;82;20855;-58
2022/06/19 12:01:42;;;;;;;4.35;2.50;;;;;;;37.01;25.15;100265.68;1675205;83;21084;-58
2022/06/19 12:04:37;;;;;;;2.60;2.00;;;;;;;36.86;24.96;100266.00;1695755;83;21065;-61
2022/06/19 12:07:16;;;;;;;3.65;2.30;;;;;;;36.84;25.54;100264.20;1687153;84;20926;-59